Time;durP1;ratioP1;P1;durP2;ratioP2;P2;SDS_P1;SDS_P2;PMS_P1;PMS_P2;Temp;Humidity;BMP_temperature;BMP_pressure;BME280_temperature;BME280_humidity;BME280_pressure;Samples;Min_cycle;Max_cycle;Signal;HPM_P1;HPM_P2
2023/06/19 00:01:05;;;;;;;5.40;4.00;;;;;;;20.45;56.04;100423.83;109015;1251;74741;-74
2023/06/19 00:03:33;;;;;;;6.60;4.40;;;;;;;20.41;56.29;100421.08;109040;1253;71296;-74
2023/06/19 00:06:00;;;;;;;7.80;4.60;;;;;;;20.38;56.36;100422.77;109248;1253;71096;-74
2023/06/19 00:08:27;;;;;;;5.70;4.50;;;;;;;20.36;56.29;100421.23;109077;1253;59455;-74
2023/06/19 00:10:54;;;;;;;7.40;5.10;;;;;;;20.36;56.32;100416.05;109182;1251;59687;-74
2023/06/19 00:13:21;;;;;;;7.20;4.80;;;;;;;20.36;56.37;100417.09;109099;1251;74085;-74
2023/06/19 00:15:48;;;;;;;6.50;4.80;;;;;;;20.38;56.23;100416.09;109308;1253;69949;-74
2023/06/19 00:18:16;;;;;;;5.30;4.20;;;;;;;20.40;56.26;100411.73;109148;1253;72656;-75
2023/06/19 00:20:45;;;;;;;6.20;4.30;;;;;;;20.43;56.16;100416.69;109171;1252;59276;-74
2023/06/19 00:23:14;;;;;;;5.00;4.20;;;;;;;20.46;56.13;100418.33;109260;1251;59168;-73
2023/06/19 00:25:43;;;;;;;5.20;3.70;;;;;;;20.49;55.93;100413.88;109181;1252;74409;-74
2023/06/19 00:28:12;;;;;;;6.60;4.30;;;;;;;20.52;55.90;100414.41;109090;1252;70355;-75
2023/06/19 00:30:39;;;;;;;6.40;4.10;;;;;;;20.55;55.99;100410.93;109281;1252;71438;-74
2023/06/19 00:33:07;;;;;;;5.90;4.20;;;;;;;20.57;55.96;100403.70;109083;1252;59938;-74
2023/06/19 00:35:34;;;;;;;5.50;4.30;;;;;;;20.59;55.94;100402.71;109113;1252;60644;-74
2023/06/19 00:38:01;;;;;;;5.10;3.90;;;;;;;20.60;56.22;100406.55;109060;1253;74080;-75
2023/06/19 00:40:31;;;;;;;6.40;4.00;;;;;;;20.60;56.10;100403.33;108998;1255;70495;-74
2023/06/19 00:42:58;;;;;;;5.00;4.00;;;;;;;20.60;55.91;100403.48;109256;1252;72675;-74
2023/06/19 00:45:25;;;;;;;5.40;4.10;;;;;;;20.60;56.04;100399.89;109074;1253;60918;-74
2023/06/19 00:47:54;;;;;;;5.80;3.80;;;;;;;20.61;56.09;100396.54;109171;1254;59090;-73
2023/06/19 00:50:21;;;;;;;5.30;4.30;;;;;;;20.61;56.20;100390.23;109155;1253;73946;-74
2023/06/19 00:52:49;;;;;;;5.50;3.80;;;;;;;20.61;56.14;100388.09;109254;1252;70455;-74
2023/06/19 00:55:16;;;;;;;4.40;3.80;;;;;;;20.60;56.33;100384.52;109146;1253;74019;-74
2023/06/19 00:57:43;;;;;;;5.30;3.70;;;;;;;20.60;56.48;100387.52;108924;1253;61729;-73
2023/06/19 01:00:12;;;;;;;6.00;4.00;;;;;;;20.58;56.58;100383.95;109054;1252;60402;-75
2023/06/19 01:02:39;;;;;;;5.80;3.90;;;;;;;20.58;56.55;100382.64;109074;1251;74704;-74
2023/06/19 01:05:06;;;;;;;5.00;3.50;;;;;;;20.56;56.54;100378.66;109142;1252;70227;-74
2023/06/19 01:08:11;;;;;;;4.90;3.50;;;;;;;20.54;56.69;100374.49;109276;1252;71270;-74
2023/06/19 01:10:43;;;;;;;5.90;4.20;;;;;;;20.53;56.43;100369.68;109258;1252;59752;-74
2023/06/19 01:13:16;;;;;;;5.80;3.90;;;;;;;20.51;56.48;100363.94;109048;1252;278916;-74
2023/06/19 01:15:42;;;;;;;5.90;4.10;;;;;;;20.50;56.52;100360.96;109232;1252;75692;-73
2023/06/19 01:18:12;;;;;;;7.70;3.90;;;;;;;20.51;56.39;100361.84;109263;1252;70451;-75
2023/06/19 01:20:39;;;;;;;4.80;3.90;;;;;;;20.50;56.51;100359.77;109217;1251;72296;-74
2023/06/19 01:23:08;;;;;;;5.00;3.80;;;;;;;20.49;56.48;100351.09;109229;1252;59205;-75
2023/06/19 01:25:35;;;;;;;5.10;3.80;;;;;;;20.50;56.67;100341.58;109087;1253;60326;-74
2023/06/19 01:28:05;;;;;;;5.90;4.00;;;;;;;20.50;56.86;100340.17;109157;1253;73140;-73
2023/06/19 01:30:34;;;;;;;5.30;3.80;;;;;;;20.48;57.00;100334.54;109292;1252;71188;-73
2023/06/19 01:33:15;;;;;;;5.60;4.20;;;;;;;20.47;57.23;100332.30;109373;1252;71767;-74
2023/06/19 01:35:43;;;;;;;5.00;3.90;;;;;;;20.44;57.37;100340.67;109372;1251;60382;-74
2023/06/19 01:38:12;;;;;;;5.00;3.80;;;;;;;20.43;57.41;100346.96;109162;1251;59122;-74
2023/06/19 01:40:40;;;;;;;6.20;3.60;;;;;;;20.43;57.44;100343.40;109039;1253;73658;-74
2023/06/19 01:43:08;;;;;;;5.70;3.70;;;;;;;20.43;57.42;100343.02;109237;1253;71240;-74
2023/06/19 01:45:36;;;;;;;4.70;3.90;;;;;;;20.43;57.24;100343.35;109116;1253;71501;-74
2023/06/19 01:48:04;;;;;;;5.70;3.90;;;;;;;20.45;57.17;100343.43;109252;1251;60994;-74
2023/06/19 01:50:30;;;;;;;4.70;3.60;;;;;;;20.45;57.11;100339.55;109250;1253;60060;-74
2023/06/19 01:52:57;;;;;;;7.50;3.80;;;;;;;20.45;57.27;100340.42;108981;1253;74043;-74
2023/06/19 01:55:25;;;;;;;5.10;3.90;;;;;;;20.44;57.32;100336.14;109030;1253;70691;-73
2023/06/19 01:57:52;;;;;;;5.10;3.90;;;;;;;20.42;57.20;100340.32;109247;1251;71848;-73
2023/06/19 02:00:19;;;;;;;5.20;4.10;;;;;;;20.41;57.37;100341.76;109149;1252;59358;-74
2023/06/19 02:02:45;;;;;;;4.80;4.20;;;;;;;20.40;57.32;100341.31;109113;1252;59391;-74
2023/06/19 02:05:13;;;;;;;4.40;3.80;;;;;;;20.39;57.27;100343.36;109135;1251;73444;-75
2023/06/19 02:07:40;;;;;;;7.80;4.20;;;;;;;20.40;57.11;100342.77;109045;1252;69915;-74
2023/06/19 02:10:08;;;;;;;5.70;4.10;;;;;;;20.40;57.05;100344.68;109233;1252;73486;-73
2023/06/19 02:12:35;;;;;;;5.20;4.10;;;;;;;20.41;57.14;100345.70;109180;1252;59376;-74
2023/06/19 02:15:02;;;;;;;5.10;3.80;;;;;;;20.40;56.92;100342.55;109251;1252;60070;-75
2023/06/19 02:17:29;;;;;;;6.20;3.90;;;;;;;20.40;56.67;100342.77;109235;1251;75042;-73
2023/06/19 02:19:56;;;;;;;6.40;3.70;;;;;;;20.40;56.69;100344.01;109145;1253;71776;-74
2023/06/19 02:22:23;;;;;;;6.50;3.60;;;;;;;20.40;56.72;100341.16;109238;1253;71507;-74
2023/06/19 02:24:50;;;;;;;5.70;4.10;;;;;;;20.41;56.84;100341.59;109228;1251;59154;-74
2023/06/19 02:27:17;;;;;;;6.20;3.80;;;;;;;20.40;56.71;100348.27;109135;1252;58935;-75
2023/06/19 02:29:43;;;;;;;4.40;3.70;;;;;;;20.40;56.64;100347.03;109136;1253;74748;-74
2023/06/19 02:32:11;;;;;;;5.80;3.70;;;;;;;20.40;56.56;100346.12;109124;1252;71289;-73
2023/06/19 02:34:37;;;;;;;6.00;3.60;;;;;;;20.40;56.48;100348.86;109082;1253;72875;-75
2023/06/19 02:37:04;;;;;;;5.90;3.70;;;;;;;20.41;56.41;100344.52;109176;1254;59220;-75
2023/06/19 02:39:32;;;;;;;6.40;4.00;;;;;;;20.42;56.35;100342.91;109259;1252;60228;-74
2023/06/19 02:41:59;;;;;;;5.60;4.00;;;;;;;20.44;56.45;100332.80;109225;1253;74657;-74
2023/06/19 02:44:26;;;;;;;6.30;3.80;;;;;;;20.44;56.72;100330.71;108991;1252;71306;-74
2023/06/19 02:46:53;;;;;;;5.20;3.70;;;;;;;20.44;56.87;100322.84;109269;1254;71466;-74
2023/06/19 02:49:20;;;;;;;7.10;3.90;;;;;;;20.43;57.15;100321.79;108921;1252;59114;-75
2023/06/19 02:51:46;;;;;;;5.10;3.60;;;;;;;20.41;57.27;100324.09;109276;1252;60333;-73
2023/06/19 02:54:13;;;;;;;5.20;3.80;;;;;;;20.39;57.49;100318.58;109235;1251;74727;-73
2023/06/19 02:56:40;;;;;;;6.00;4.10;;;;;;;20.35;57.99;100316.16;109158;1252;71544;-74
2023/06/19 02:59:07;;;;;;;5.00;3.80;;;;;;;20.31;58.45;100311.04;109242;1252;71418;-74
2023/06/19 03:01:34;;;;;;;5.10;3.90;;;;;;;20.26;58.64;100309.55;109255;1252;59397;-75
2023/06/19 03:04:01;;;;;;;5.00;3.90;;;;;;;20.22;58.69;100308.01;109174;1252;59427;-74
2023/06/19 03:06:28;;;;;;;5.30;3.90;;;;;;;20.21;58.82;100303.98;109019;1252;74067;-74
2023/06/19 03:08:54;;;;;;;6.50;4.20;;;;;;;20.20;58.86;100301.98;108385;1251;71064;-74
2023/06/19 03:11:21;;;;;;;6.70;4.30;;;;;;;20.17;58.90;100299.85;108042;1251;71528;-75
2023/06/19 03:13:51;;;;;;;5.50;3.80;;;;;;;20.15;59.19;100299.45;107946;1253;61262;-73
2023/06/19 03:16:17;;;;;;;5.50;4.10;;;;;;;20.13;59.37;100302.11;108167;1252;59933;-74
2023/06/19 03:18:44;;;;;;;4.80;4.00;;;;;;;20.11;59.58;100305.69;107762;1252;73810;-74
2023/06/19 03:21:15;;;;;;;6.30;4.00;;;;;;;20.10;59.49;100302.49;107818;1253;70045;-75
2023/06/19 03:23:42;;;;;;;5.70;4.40;;;;;;;20.08;59.67;100301.29;108323;1251;71717;-75
2023/06/19 03:26:12;;;;;;;6.70;3.90;;;;;;;20.06;59.69;100299.25;108209;1257;60585;-74
2023/06/19 03:28:39;;;;;;;5.60;4.00;;;;;;;20.03;59.86;100299.98;108295;1252;59981;-73
2023/06/19 03:31:06;;;;;;;5.40;4.10;;;;;;;20.01;59.92;100302.95;107844;1252;74483;-75
2023/06/19 03:33:32;;;;;;;6.00;4.30;;;;;;;19.97;59.79;100303.60;107764;1252;71299;-73
2023/06/19 03:35:59;;;;;;;5.50;3.80;;;;;;;19.96;59.71;100301.39;108446;1253;72644;-73
2023/06/19 03:38:26;;;;;;;6.30;3.90;;;;;;;19.96;59.63;100310.23;108426;1252;61158;-73
2023/06/19 03:40:52;;;;;;;5.20;3.70;;;;;;;19.97;59.45;100308.66;108402;1252;59927;-74
2023/06/19 03:51:35;;;;;;;7.40;3.90;;;;;;;20.02;59.39;100323.86;108235;1252;74422;-73
2023/06/19 03:54:12;;;;;;;4.50;3.80;;;;;;;20.03;59.45;100315.32;108224;1251;61267;-74
2023/06/19 03:56:39;;;;;;;4.70;3.70;;;;;;;20.03;59.22;100317.26;107893;1251;59263;-73
2023/06/19 04:07:08;;;;;;;5.30;3.90;;;;;;;20.08;58.91;100318.25;107760;1252;72619;-73
2023/06/19 04:09:34;;;;;;;5.20;4.00;;;;;;;20.10;58.80;100317.85;107666;1253;61271;-74
2023/06/19 04:12:01;;;;;;;5.50;3.80;;;;;;;20.14;58.71;100322.31;108696;1254;59444;-73
2023/06/19 04:14:29;;;;;;;5.40;4.30;;;;;;;20.17;58.61;100325.42;107878;1253;73524;-72
2023/06/19 04:16:55;;;;;;;6.00;4.10;;;;;;;20.20;58.50;100328.66;108244;1252;71449;-73
2023/06/19 04:19:23;;;;;;;6.80;4.10;;;;;;;20.22;58.47;100325.41;109175;1257;72698;-73
2023/06/19 04:21:49;;;;;;;6.40;4.20;;;;;;;20.25;58.44;100323.60;108737;1251;61185;-74
2023/06/19 04:24:16;;;;;;;6.80;3.90;;;;;;;20.27;58.31;100325.52;108227;1251;61168;-73
2023/06/19 04:26:43;;;;;;;4.90;3.90;;;;;;;20.31;58.25;100326.43;108600;1252;73842;-74
2023/06/19 04:29:16;;;;;;;5.90;3.90;;;;;;;20.34;58.12;100323.63;107726;1252;71293;-74
2023/06/19 04:31:47;;;;;;;5.70;3.70;;;;;;;20.38;57.89;100322.55;108653;1252;71603;-73
2023/06/19 04:34:17;;;;;;;5.40;3.60;;;;;;;20.41;57.96;100326.19;108165;1258;59526;-73
2023/06/19 04:36:44;;;;;;;5.00;3.70;;;;;;;20.43;57.87;100330.09;108459;1252;60459;-73
2023/06/19 04:39:10;;;;;;;4.80;3.90;;;;;;;20.44;57.80;100336.96;108270;1253;73516;-75
2023/06/19 04:41:38;;;;;;;4.50;3.70;;;;;;;20.46;57.58;100334.88;108219;1251;71195;-72
2023/06/19 04:44:05;;;;;;;5.90;3.80;;;;;;;20.48;57.64;100338.84;108134;1252;73556;-75
2023/06/19 04:46:32;;;;;;;7.40;3.90;;;;;;;20.51;57.30;100341.52;107903;1252;61299;-74
2023/06/19 04:48:59;;;;;;;7.50;3.80;;;;;;;20.52;57.05;100340.73;107940;1253;62198;-75
2023/06/19 04:51:32;;;;;;;4.60;3.60;;;;;;;20.54;56.78;100349.21;108448;1253;74243;-74
2023/06/19 04:54:00;;;;;;;5.60;3.80;;;;;;;20.56;56.59;100351.07;108286;1253;71286;-74
2023/06/19 04:56:26;;;;;;;4.70;3.70;;;;;;;20.58;56.36;100354.73;108288;1253;72398;-75
2023/06/19 04:58:57;;;;;;;5.30;4.20;;;;;;;20.58;56.33;100360.99;108448;1255;60234;-74
2023/06/19 05:01:27;;;;;;;5.20;3.90;;;;;;;20.65;56.12;100374.98;108055;1251;60438;-75
2023/06/19 05:03:56;;;;;;;6.10;4.00;;;;;;;20.68;56.00;100384.69;107954;1253;74433;-74
2023/06/19 05:06:24;;;;;;;6.90;4.20;;;;;;;20.73;55.96;100392.92;108329;1252;71471;-73
2023/06/19 05:08:52;;;;;;;4.90;3.50;;;;;;;20.76;56.24;100391.14;108323;1251;72052;-74
2023/06/19 05:11:18;;;;;;;6.60;4.00;;;;;;;20.79;56.51;100382.77;108643;1253;61257;-77
2023/06/19 05:13:46;;;;;;;6.50;4.20;;;;;;;20.83;57.16;100372.73;108224;1252;59295;-77
2023/06/19 05:16:16;;;;;;;5.80;4.10;;;;;;;20.87;58.01;100365.34;109154;1253;73769;-77
2023/06/19 05:18:43;;;;;;;6.50;4.40;;;;;;;20.89;59.08;100358.34;108410;1253;69818;-76
2023/06/19 05:21:10;;;;;;;4.70;4.20;;;;;;;20.87;60.48;100347.70;107978;1252;72299;-74
2023/06/19 05:23:38;;;;;;;4.70;4.20;;;;;;;20.79;61.76;100358.63;107925;1254;61235;-75
2023/06/19 05:26:04;;;;;;;8.60;5.20;;;;;;;20.67;62.35;100346.34;108380;1252;61288;-76
2023/06/19 05:28:31;;;;;;;7.30;4.70;;;;;;;20.56;62.92;100340.95;107720;1252;73640;-77
2023/06/19 05:30:58;;;;;;;9.10;4.90;;;;;;;20.49;64.02;100324.46;108029;1251;71711;-77
2023/06/19 05:33:25;;;;;;;7.30;5.20;;;;;;;20.40;65.03;100320.80;108570;1253;72686;-73
2023/06/19 05:35:53;;;;;;;6.20;5.30;;;;;;;20.33;65.77;100330.13;108654;1257;61481;-76
2023/06/19 05:38:20;;;;;;;7.90;5.20;;;;;;;20.27;66.02;100342.27;108114;1252;61684;-74
2023/06/19 05:40:47;;;;;;;7.00;5.10;;;;;;;20.20;66.06;100361.14;107897;1253;74414;-73
2023/06/19 05:43:14;;;;;;;6.70;5.00;;;;;;;20.15;66.43;100371.55;107519;1253;71084;-72
2023/06/19 05:45:40;;;;;;;7.80;5.20;;;;;;;20.13;66.88;100371.90;108245;1252;72653;-74
2023/06/19 05:48:07;;;;;;;6.30;5.50;;;;;;;20.14;67.28;100367.30;108053;1252;60484;-73
2023/06/19 05:50:34;;;;;;;7.70;5.50;;;;;;;20.19;67.31;100363.54;108087;1253;61341;-76
2023/06/19 05:53:02;;;;;;;9.50;5.80;;;;;;;20.24;67.37;100359.47;108527;1253;73857;-75
2023/06/19 05:55:28;;;;;;;6.30;5.10;;;;;;;20.31;67.73;100362.38;108103;1252;69996;-73
2023/06/19 05:57:59;;;;;;;6.90;5.20;;;;;;;20.40;67.54;100370.03;108150;1257;71583;-75
2023/06/19 06:00:25;;;;;;;7.10;5.10;;;;;;;20.47;67.32;100378.11;107825;1251;62743;-74
2023/06/19 06:02:53;;;;;;;7.20;5.50;;;;;;;20.53;67.92;100379.73;107531;1253;61285;-76
2023/06/19 06:05:20;;;;;;;7.80;5.40;;;;;;;20.64;67.78;100377.51;108358;1254;73809;-76
2023/06/19 06:08:14;;;;;;;7.80;5.80;;;;;;;20.74;67.80;100377.05;108438;1253;70460;-77
2023/06/19 06:10:40;;;;;;;60.90;48.10;;;;;;;20.93;67.96;100376.15;108478;1253;73855;-76
2023/06/19 06:13:07;;;;;;;175.10;133.30;;;;;;;21.16;67.59;100375.66;109185;1252;61861;-75
2023/06/19 06:15:34;;;;;;;61.60;50.40;;;;;;;21.37;66.93;100378.14;108938;1257;60382;-75
2023/06/19 06:18:03;;;;;;;39.10;32.30;;;;;;;21.64;66.12;100374.44;108066;1253;182013;-50
2023/06/19 06:20:30;;;;;;;14.20;10.00;;;;;;;21.92;65.01;100375.38;108135;1253;70041;-55
2023/06/19 06:22:58;;;;;;;7.40;5.60;;;;;;;22.19;64.03;100378.88;108570;1253;70981;-54
2023/06/19 06:25:24;;;;;;;21.80;17.00;;;;;;;22.39;63.67;100375.83;108511;1253;61208;-52
2023/06/19 06:27:51;;;;;;;144.40;128.80;;;;;;;22.52;63.29;100382.23;108335;1253;61585;-51
2023/06/19 06:30:20;;;;;;;49.50;38.20;;;;;;;22.68;62.51;100385.66;108485;1253;74661;-50
2023/06/19 06:32:46;;;;;;;8.20;6.20;;;;;;;22.83;61.77;100389.52;108330;1253;61206;-53
2023/06/19 06:35:13;;;;;;;9.30;6.70;;;;;;;22.97;61.19;100385.52;108067;1253;61230;-51
2023/06/19 06:37:40;;;;;;;5.50;4.90;;;;;;;23.08;60.62;100394.69;108411;1253;62102;-48
2023/06/19 06:40:10;;;;;;;7.70;6.30;;;;;;;23.18;60.46;100399.58;108592;1249;178654;-76
2023/06/19 06:42:38;;;;;;;55.40;45.90;;;;;;;23.25;59.91;100394.35;107999;1253;74678;-76
2023/06/19 06:45:07;;;;;;;9.80;7.10;;;;;;;23.33;59.49;100396.64;107889;1251;70198;-77
2023/06/19 06:47:35;;;;;;;13.00;10.50;;;;;;;23.40;59.31;100399.30;108446;1251;73120;-76
2023/06/19 06:50:02;;;;;;;11.30;8.40;;;;;;;23.46;58.90;100402.79;108308;1251;61165;-76
2023/06/19 06:52:30;;;;;;;8.90;5.20;;;;;;;23.53;58.73;100398.63;107999;1252;61266;-75
2023/06/19 06:54:57;;;;;;;8.20;5.50;;;;;;;23.62;58.49;100403.45;108114;1256;74593;-75
2023/06/19 06:57:24;;;;;;;9.60;5.30;;;;;;;23.73;58.32;100408.13;108126;1251;71294;-77
2023/06/19 06:59:51;;;;;;;8.60;4.80;;;;;;;23.81;58.09;100409.02;108388;1251;72468;-77
2023/06/19 07:02:19;;;;;;;6.10;4.90;;;;;;;23.90;57.80;100412.40;107745;1255;61346;-77
2023/06/19 07:04:46;;;;;;;7.00;4.90;;;;;;;23.99;57.79;100414.30;108234;1251;61325;-77
2023/06/19 07:07:13;;;;;;;6.60;5.00;;;;;;;24.06;57.12;100413.11;107899;1256;73431;-77
2023/06/19 07:09:39;;;;;;;7.80;5.20;;;;;;;24.05;56.97;100413.21;108309;1251;70221;-76
2023/06/19 07:12:07;;;;;;;13.60;12.10;;;;;;;24.03;56.96;100415.70;107886;1253;73065;-76
2023/06/19 07:14:34;;;;;;;8.60;6.60;;;;;;;24.04;56.99;100415.80;108003;1252;62798;-77
2023/06/19 07:17:01;;;;;;;13.90;8.00;;;;;;;24.07;56.90;100418.58;108386;1252;60483;-78
2023/06/19 07:19:29;;;;;;;11.40;6.10;;;;;;;24.11;56.90;100414.02;108369;1251;73375;-76
2023/06/19 07:21:56;;;;;;;7.20;5.60;;;;;;;24.21;56.98;100417.25;107596;1256;69947;-76
2023/06/19 07:24:23;;;;;;;23.80;19.90;;;;;;;24.33;56.78;100421.96;108112;1256;72714;-75
2023/06/19 07:26:50;;;;;;;35.10;29.80;;;;;;;24.41;56.19;100427.14;108636;1251;61075;-77
2023/06/19 07:29:17;;;;;;;9.60;7.60;;;;;;;24.48;56.26;100420.48;108080;1253;59417;-77
2023/06/19 07:31:44;;;;;;;6.80;5.60;;;;;;;24.56;56.50;100424.72;107983;1252;74762;-77
2023/06/19 07:34:11;;;;;;;7.80;5.70;;;;;;;24.66;56.78;100428.87;108020;1253;70012;-77
2023/06/19 07:36:37;;;;;;;6.90;5.40;;;;;;;24.79;56.76;100423.67;108505;1253;70744;-76
2023/06/19 07:39:04;;;;;;;8.10;5.90;;;;;;;24.96;56.38;100424.64;107809;1252;61295;-76
2023/06/19 07:41:35;;;;;;;10.50;8.30;;;;;;;25.14;55.88;100424.84;107640;1255;61138;-76
2023/06/19 07:44:02;;;;;;;10.80;8.00;;;;;;;25.30;55.39;100424.84;108448;1252;73600;-75
2023/06/19 07:46:28;;;;;;;7.80;6.10;;;;;;;25.41;55.17;100428.80;107871;1252;71312;-75
2023/06/19 07:48:55;;;;;;;10.60;5.90;;;;;;;25.50;54.22;100431.13;108009;1255;72310;-75
2023/06/19 07:51:22;;;;;;;9.00;7.80;;;;;;;25.59;54.34;100429.00;107547;1253;61646;-77
2023/06/19 07:53:49;;;;;;;11.20;9.80;;;;;;;25.66;54.04;100427.34;108133;1252;61168;-76
2023/06/19 07:56:17;;;;;;;8.90;6.70;;;;;;;25.73;53.23;100429.67;108525;1253;74824;-79
2023/06/19 07:58:43;;;;;;;9.50;7.40;;;;;;;25.78;52.92;100436.86;108399;1253;69935;-78
2023/06/19 08:01:10;;;;;;;10.00;6.90;;;;;;;25.82;52.56;100440.42;108287;1254;72381;-76
2023/06/19 08:03:37;;;;;;;7.30;6.00;;;;;;;25.91;52.22;100438.63;107931;1253;59531;-75
2023/06/19 08:06:04;;;;;;;6.40;5.60;;;;;;;26.03;51.80;100436.27;108269;1257;61305;-74
2023/06/19 08:08:31;;;;;;;6.10;5.50;;;;;;;26.09;50.78;100437.80;107622;1253;74726;-74
2023/06/19 08:10:58;;;;;;;7.20;6.00;;;;;;;26.13;50.43;100432.70;108038;1252;69935;-76
2023/06/19 08:13:25;;;;;;;7.30;5.40;;;;;;;26.20;49.83;100430.63;107981;1252;72679;-75
2023/06/19 08:15:52;;;;;;;6.80;5.70;;;;;;;26.30;49.44;100434.78;108859;1251;61173;-75
2023/06/19 08:18:19;;;;;;;11.20;8.70;;;;;;;26.39;49.32;100437.73;108116;1252;59992;-75
2023/06/19 08:20:46;;;;;;;39.80;35.30;;;;;;;26.51;49.40;100433.16;108602;1253;74430;-77
2023/06/19 08:23:12;;;;;;;19.80;15.90;;;;;;;26.65;47.61;100432.22;108001;1252;71382;-74
2023/06/19 08:25:39;;;;;;;5.70;5.00;;;;;;;26.70;45.67;100430.54;108785;1253;71496;-74
2023/06/19 08:28:07;;;;;;;6.70;5.10;;;;;;;26.71;45.15;100430.63;109248;1252;61094;-76
2023/06/19 08:30:34;;;;;;;5.40;4.90;;;;;;;26.72;45.41;100429.89;108782;1252;59319;-75
2023/06/19 08:33:00;;;;;;;6.50;5.00;;;;;;;26.76;45.57;100429.38;108832;1251;72849;-75
2023/06/19 08:35:27;;;;;;;6.20;4.90;;;;;;;26.83;45.55;100425.65;108336;1252;71169;-74
2023/06/19 08:37:54;;;;;;;7.90;6.40;;;;;;;26.85;45.28;100427.63;108483;1252;71554;-75
2023/06/19 08:40:21;;;;;;;7.80;5.10;;;;;;;26.85;45.78;100431.61;108388;1250;60468;-72
2023/06/19 08:42:48;;;;;;;8.50;6.00;;;;;;;26.82;45.71;100428.98;108214;1252;61225;-76
2023/06/19 08:45:16;;;;;;;6.90;5.20;;;;;;;26.82;45.98;100426.90;108420;1253;74649;-74
2023/06/19 08:47:43;;;;;;;6.40;5.10;;;;;;;26.88;46.08;100423.42;107452;1253;72474;-73
2023/06/19 08:50:10;;;;;;;5.80;4.90;;;;;;;26.93;45.92;100419.48;108465;1253;71403;-74
2023/06/19 08:52:37;;;;;;;6.40;4.90;;;;;;;26.97;46.33;100423.35;108260;1253;59094;-77
2023/06/19 08:55:04;;;;;;;5.80;4.60;;;;;;;27.01;46.50;100423.89;108049;1253;61248;-76
2023/06/19 08:57:38;;;;;;;11.40;10.10;;;;;;;27.02;46.57;100425.03;108434;1253;74758;-74
2023/06/19 09:00:07;;;;;;;13.50;9.80;;;;;;;27.06;46.35;100428.25;107972;1254;71106;-76
2023/06/19 09:02:46;;;;;;;6.00;5.30;;;;;;;27.10;46.25;100431.52;108413;1252;71515;-76
2023/06/19 09:05:26;;;;;;;6.30;5.30;;;;;;;27.22;46.05;100431.48;107918;1255;61150;-74
2023/06/19 09:08:00;;;;;;;7.30;4.90;;;;;;;27.35;45.80;100436.34;107746;1253;61199;-75
2023/06/19 09:10:27;;;;;;;6.10;4.60;;;;;;;27.47;45.71;100432.90;108708;1253;73871;-74
2023/06/19 09:12:58;;;;;;;8.50;4.40;;;;;;;27.61;46.04;100431.87;107917;1253;70062;-75
2023/06/19 09:15:28;;;;;;;6.10;5.20;;;;;;;27.65;45.08;100431.11;108001;1253;72163;-76
2023/06/19 09:18:09;;;;;;;4.70;4.20;;;;;;;27.70;45.52;100437.14;108534;1251;59416;-76
2023/06/19 09:20:43;;;;;;;6.60;4.60;;;;;;;27.76;45.09;100435.69;108422;1251;59250;-76
2023/06/19 09:23:11;;;;;;;5.50;4.40;;;;;;;27.82;44.97;100433.45;107910;1253;73190;-73
2023/06/19 09:25:52;;;;;;;7.10;4.50;;;;;;;27.87;44.61;100437.23;108185;1256;69994;-77
2023/06/19 09:28:26;;;;;;;5.70;4.50;;;;;;;27.88;44.74;100440.65;108194;1253;72474;-75
2023/06/19 09:30:58;;;;;;;5.80;4.30;;;;;;;27.89;44.31;100436.86;108671;1253;59010;-73
2023/06/19 09:33:27;;;;;;;4.80;4.30;;;;;;;28.01;44.93;100434.11;107703;1252;60122;-78
2023/06/19 09:35:57;;;;;;;5.20;4.30;;;;;;;28.16;44.66;100431.84;108292;1252;73996;-75
2023/06/19 09:38:28;;;;;;;6.70;4.60;;;;;;;28.35;44.63;100431.98;107868;1258;70646;-74
2023/06/19 09:40:56;;;;;;;5.20;4.60;;;;;;;28.67;44.32;100432.08;108283;1252;71783;-77
2023/06/19 09:43:25;;;;;;;6.00;4.40;;;;;;;28.96;43.60;100434.23;107479;1258;61611;-78
2023/06/19 09:45:55;;;;;;;5.60;4.30;;;;;;;29.09;43.06;100433.96;107931;1252;61123;-77
2023/06/19 09:48:29;;;;;;;5.30;4.30;;;;;;;29.19;42.93;100433.98;108150;1252;75730;-77
2023/06/19 09:51:02;;;;;;;5.50;4.80;;;;;;;29.28;43.27;100435.23;108553;1251;72681;-77
2023/06/19 09:53:29;;;;;;;4.70;4.20;;;;;;;29.41;42.74;100435.80;108139;1252;72137;-78
2023/06/19 09:55:56;;;;;;;6.40;3.90;;;;;;;29.52;42.87;100439.88;108157;1252;59394;-78
2023/06/19 09:58:23;;;;;;;8.00;4.60;;;;;;;29.60;42.99;100445.09;108198;1253;61235;-77
2023/06/19 10:00:50;;;;;;;6.00;4.00;;;;;;;29.55;41.87;100448.77;107933;1253;74491;-76
2023/06/19 10:03:17;;;;;;;15.40;12.80;;;;;;;29.48;42.27;100450.55;107761;1257;69975;-76
2023/06/19 10:05:45;;;;;;;6.80;5.40;;;;;;;29.44;42.64;100450.96;108380;1253;72214;-76
2023/06/19 10:08:12;;;;;;;5.80;3.80;;;;;;;29.41;42.90;100451.77;108611;1252;61340;-75
2023/06/19 10:10:48;;;;;;;4.80;3.70;;;;;;;29.34;43.23;100456.23;107911;1253;61195;-76
2023/06/19 10:13:16;;;;;;;5.40;3.80;;;;;;;29.11;42.90;100460.70;107708;1253;74401;-75
2023/06/19 10:15:44;;;;;;;5.50;4.00;;;;;;;28.98;43.14;100458.06;108136;1253;71361;-78
2023/06/19 10:18:16;;;;;;;5.40;4.30;;;;;;;28.83;43.53;100464.57;108615;1252;72805;-79
2023/06/19 10:20:44;;;;;;;4.60;3.90;;;;;;;28.73;43.81;100461.05;107740;1256;61414;-76
2023/06/19 10:23:13;;;;;;;4.90;4.00;;;;;;;28.71;44.18;100462.63;107988;1252;61277;-79
2023/06/19 10:25:43;;;;;;;6.40;4.20;;;;;;;28.76;44.28;100461.11;108594;1253;73515;-77
2023/06/19 10:28:24;;;;;;;4.20;3.80;;;;;;;28.80;44.45;100466.98;107785;1253;70898;-75
2023/06/19 10:31:05;;;;;;;4.40;3.70;;;;;;;28.84;44.05;100470.50;107640;1252;72845;-74
2023/06/19 10:33:33;;;;;;;4.90;3.70;;;;;;;28.71;44.04;100470.65;108464;1253;59467;-79
2023/06/19 10:36:02;;;;;;;5.10;4.30;;;;;;;28.63;44.65;100468.45;107638;1252;59113;-77
2023/06/19 10:38:29;;;;;;;4.80;3.50;;;;;;;28.67;45.65;100468.49;108610;1253;74460;-80
2023/06/19 10:40:56;;;;;;;5.10;3.60;;;;;;;28.66;45.13;100468.67;108015;1255;69982;-77
2023/06/19 10:43:25;;;;;;;4.90;3.70;;;;;;;28.71;45.60;100469.33;108313;1253;71481;-77
2023/06/19 10:45:51;;;;;;;4.20;3.20;;;;;;;28.70;45.13;100468.92;108205;1252;61392;-76
2023/06/19 10:48:23;;;;;;;4.00;3.40;;;;;;;28.56;45.20;100469.47;107606;1253;62254;-74
2023/06/19 10:50:51;;;;;;;4.20;3.40;;;;;;;28.41;45.72;100469.60;107581;1253;74034;-78
2023/06/19 10:53:30;;;;;;;6.10;3.50;;;;;;;28.34;46.03;100466.60;108624;1253;71659;-77
2023/06/19 10:56:02;;;;;;;5.60;3.90;;;;;;;28.18;46.43;100461.86;108448;1253;71950;-75
2023/06/19 10:58:29;;;;;;;7.50;3.70;;;;;;;28.06;46.44;100464.67;107888;1252;61223;-80
2023/06/19 11:00:56;;;;;;;4.60;3.80;;;;;;;28.04;46.76;100466.83;107712;1255;61795;-78
2023/06/19 11:03:23;;;;;;;4.50;3.50;;;;;;;28.09;46.47;100465.89;108722;1256;75514;-75
2023/06/19 11:05:51;;;;;;;5.80;3.80;;;;;;;28.05;46.54;100472.48;108327;1253;70321;-78
2023/06/19 11:08:19;;;;;;;4.20;3.50;;;;;;;28.16;46.62;100472.49;107877;1253;71243;-79
2023/06/19 11:10:46;;;;;;;5.60;3.30;;;;;;;28.27;46.38;100468.02;108132;1253;59502;-77
2023/06/19 11:13:20;;;;;;;5.40;3.10;;;;;;;28.48;45.84;100462.77;108421;1251;61205;-75
2023/06/19 11:15:51;;;;;;;4.30;3.10;;;;;;;28.61;46.10;100471.66;108521;1253;74793;-79
2023/06/19 11:18:18;;;;;;;4.50;3.30;;;;;;;28.66;46.12;100470.30;107497;1253;69187;-77
2023/06/19 11:20:50;;;;;;;5.90;3.20;;;;;;;28.74;45.94;100466.92;108411;1252;72731;-77
2023/06/19 11:23:26;;;;;;;5.00;3.20;;;;;;;28.94;45.65;100466.17;108267;1254;59130;-76
2023/06/19 11:25:53;;;;;;;4.80;3.00;;;;;;;28.97;45.36;100459.17;107798;1251;61278;-75
2023/06/19 11:28:22;;;;;;;4.70;3.30;;;;;;;28.97;45.46;100463.71;107901;1253;74337;-75
2023/06/19 11:30:58;;;;;;;4.50;3.20;;;;;;;29.05;45.52;100471.83;108311;1253;69933;-77
2023/06/19 11:33:25;;;;;;;5.50;3.20;;;;;;;29.20;45.11;100469.22;108121;1255;72482;-76
2023/06/19 11:35:54;;;;;;;5.90;3.20;;;;;;;29.38;44.97;100468.17;108416;1254;59648;-76
2023/06/19 11:38:24;;;;;;;4.50;2.80;;;;;;;29.46;44.29;100468.99;107949;1252;62084;-74